Time;durP1;ratioP1;P1;durP2;ratioP2;P2;SDS_P1;SDS_P2;PMS_P1;PMS_P2;Temp;Humidity;BMP_temperature;BMP_pressure;BME280_temperature;BME280_humidity;BME280_pressure;Samples;Min_cycle;Max_cycle;Signal;HPM_P1;HPM_P2
2022/08/22 00:00:55;;;;;;;4.18;3.20;;;14.90;99.90;;;;;;6162273;23;20013;-82
2022/08/22 00:03:26;;;;;;;;;;;14.80;99.90;;;;;;6162499;23;20017;-82
2022/08/22 00:06:10;;;;;;;4.35;3.47;;;14.80;99.90;;;;;;6162186;23;19918;-83
2022/08/22 00:08:46;;;;;;;3.70;3.30;;;14.90;99.90;;;;;;6187459;23;20008;-82
2022/08/22 00:11:14;;;;;;;3.78;3.33;;;14.80;99.90;;;;;;6186828;23;20016;-82
2022/08/22 00:14:06;;;;;;;4.00;3.40;;;14.80;99.90;;;;;;6187115;23;20020;-83
2022/08/22 00:16:59;;;;;;;3.63;3.20;;;14.80;99.90;;;;;;6162654;23;20013;-82
2022/08/22 00:19:44;;;;;;;6.28;3.33;;;14.80;99.90;;;;;;6162535;23;20009;-82
2022/08/22 00:22:47;;;;;;;4.65;3.30;;;14.70;99.90;;;;;;6161326;23;20019;-82
2022/08/22 00:25:35;;;;;;;4.17;3.33;;;14.70;99.90;;;;;;6162780;23;20536;-83
2022/08/22 00:28:23;;;;;;;4.32;3.33;;;14.70;99.90;;;;;;6186100;23;20012;-82
2022/08/22 00:31:16;;;;;;;4.20;3.67;;;14.60;99.90;;;;;;6161056;23;20032;-83
2022/08/22 00:34:14;;;;;;;3.75;3.45;;;14.60;99.90;;;;;;6162626;23;20322;-82
2022/08/22 00:36:57;;;;;;;4.38;3.28;;;14.60;99.90;;;;;;6156621;23;20024;-82
2022/08/22 00:39:51;;;;;;;4.28;3.40;;;14.60;99.90;;;;;;6162349;23;20012;-82
2022/08/22 00:43:06;;;;;;;5.10;3.38;;;14.50;99.90;;;;;;6186993;23;20023;-83
2022/08/22 00:45:52;;;;;;;3.83;3.33;;;14.50;99.90;;;;;;6162677;23;20067;-83
2022/08/22 00:48:26;;;;;;;3.85;3.35;;;14.50;99.90;;;;;;6161432;23;20019;-82
2022/08/22 00:51:10;;;;;;;4.07;3.40;;;14.40;99.90;;;;;;6187186;23;20024;-82
2022/08/22 00:53:45;;;;;;;4.25;3.35;;;14.40;99.90;;;;;;6162387;23;20008;-83
2022/08/22 00:56:40;;;;;;;4.18;3.45;;;14.40;99.90;;;;;;6162209;23;20020;-83
2022/08/22 00:59:37;;;;;;;4.53;3.65;;;14.40;99.90;;;;;;6161468;23;20004;-83
2022/08/22 01:02:42;;;;;;;4.78;3.47;;;14.40;99.90;;;;;;6182175;23;20052;-82
2022/08/22 01:05:40;;;;;;;4.97;3.85;;;14.40;99.90;;;;;;6162572;23;20040;-82
2022/08/22 01:08:53;;;;;;;4.07;3.78;;;14.30;99.90;;;;;;6169104;23;20017;-82
2022/08/22 01:11:40;;;;;;;4.38;3.90;;;14.30;99.90;;;;;;6154078;23;20035;-83
2022/08/22 01:14:22;;;;;;;4.78;3.90;;;14.30;99.90;;;;;;6186889;23;20017;-83
2022/08/22 01:17:11;;;;;;;4.20;3.80;;;14.30;99.90;;;;;;6161671;23;20013;-82
2022/08/22 01:20:04;;;;;;;5.10;4.35;;;14.30;99.90;;;;;;6162288;23;20028;-83
2022/08/22 01:22:47;;;;;;;4.50;3.90;;;14.20;99.90;;;;;;6186933;23;20012;-84
2022/08/22 01:25:47;;;;;;;4.47;3.90;;;14.20;99.90;;;;;;6162125;23;20020;-82
2022/08/22 01:28:43;;;;;;;4.13;3.55;;;14.20;99.90;;;;;;6161512;23;20441;-83
2022/08/22 01:31:33;;;;;;;4.68;3.80;;;14.20;99.90;;;;;;6162399;23;20063;-84
2022/08/22 01:34:17;;;;;;;3.80;3.40;;;14.20;99.90;;;;;;6164408;23;20023;-84
2022/08/22 01:37:14;;;;;;;4.07;3.67;;;14.20;99.90;;;;;;6163691;23;20094;-83
2022/08/22 01:40:17;;;;;;;3.85;3.45;;;14.20;99.90;;;;;;6188242;23;20009;-83
2022/08/22 01:42:49;;;;;;;3.88;3.50;;;14.10;99.90;;;;;;6164088;23;20017;-83
2022/08/22 01:45:27;;;;;;;5.25;3.92;;;14.10;99.90;;;;;;6189119;23;20016;-85
2022/08/22 01:47:55;;;;;;;4.40;4.00;;;14.10;99.90;;;;;;6187440;23;20039;-83
2022/08/22 01:50:31;;;;;;;4.63;4.00;;;14.20;99.90;;;;;;6188262;23;20023;-84
2022/08/22 01:53:27;;;;;;;4.85;3.78;;;14.20;99.90;;;;;;6162861;23;20009;-84
2022/08/22 01:56:00;;;;;;;5.00;3.90;;;14.20;99.90;;;;;;6157238;23;20062;-83
2022/08/22 01:58:32;;;;;;;5.05;3.97;;;14.20;99.90;;;;;;6163335;23;20071;-83
2022/08/22 02:01:27;;;;;;;4.32;3.90;;;14.20;99.90;;;;;;6188448;23;20016;-83
2022/08/22 02:04:04;;;;;;;6.10;4.30;;;14.20;99.90;;;;;;6163665;23;20013;-82
2022/08/22 02:07:05;;;;;;;5.07;3.80;;;14.20;99.90;;;;;;6163436;23;20035;-82
2022/08/22 02:10:01;;;;;;;4.75;3.58;;;14.20;99.90;;;;;;6163348;23;20021;-83
2022/08/22 02:12:54;;;;;;;5.70;5.13;;;14.20;99.90;;;;;;6163588;23;20099;-82
2022/08/22 02:15:23;;;;;;;5.30;4.80;;;14.30;99.90;;;;;;6163508;23;20024;-84
2022/08/22 02:17:48;;;;;;;4.95;4.35;;;14.20;99.90;;;;;;6187317;23;20008;-83
2022/08/22 02:20:24;;;;;;;5.57;4.80;;;14.20;99.90;;;;;;6163771;23;20067;-83
2022/08/22 02:23:07;;;;;;;5.32;4.60;;;14.30;99.90;;;;;;6163070;23;20019;-85
2022/08/22 02:25:51;;;;;;;4.95;4.30;;;14.30;99.90;;;;;;6163371;23;20018;-83
2022/08/22 02:28:51;;;;;;;6.20;5.28;;;14.30;99.90;;;;;;6163087;23;20044;-83
2022/08/22 02:31:41;;;;;;;4.88;4.38;;;14.30;99.90;;;;;;6163699;23;20142;-83
2022/08/22 02:34:25;;;;;;;5.13;4.63;;;14.30;99.90;;;;;;6188728;23;20012;-83
2022/08/22 02:37:20;;;;;;;5.40;4.90;;;14.20;99.90;;;;;;6162651;23;20334;-83
2022/08/22 02:40:26;;;;;;;6.25;5.65;;;14.20;99.90;;;;;;6162989;23;20063;-84
2022/08/22 02:43:02;;;;;;;6.03;5.45;;;14.20;99.90;;;;;;6163248;23;20012;-83
2022/08/22 02:45:46;;;;;;;7.50;6.15;;;14.20;99.90;;;;;;6162921;23;20017;-82
2022/08/22 02:48:28;;;;;;;7.35;6.40;;;14.30;99.90;;;;;;6162565;23;20018;-82
2022/08/22 02:51:20;;;;;;;7.10;6.40;;;14.30;99.90;;;;;;6188870;23;20095;-82
2022/08/22 02:54:04;;;;;;;6.60;5.95;;;14.30;99.90;;;;;;6163685;23;20348;-83
2022/08/22 02:56:36;;;;;;;6.00;5.40;;;14.30;99.90;;;;;;6187891;23;20017;-83
2022/08/22 02:59:21;;;;;;;7.30;5.78;;;14.40;99.90;;;;;;6187496;23;20012;-83
2022/08/22 03:01:47;;;;;;;6.50;5.80;;;14.30;99.90;;;;;;6163496;23;20009;-83
2022/08/22 03:04:25;;;;;;;7.72;6.05;;;14.30;99.90;;;;;;6188060;23;20171;-85
2022/08/22 03:07:24;;;;;;;6.88;6.18;;;14.40;99.90;;;;;;6162043;23;20330;-83
2022/08/22 03:10:14;;;;;;;6.50;5.80;;;14.30;99.90;;;;;;6163082;23;20016;-83
2022/08/22 03:12:58;;;;;;;6.45;5.57;;;14.30;99.90;;;;;;6188001;23;20019;-83
2022/08/22 03:15:32;;;;;;;6.75;6.05;;;14.40;99.90;;;;;;6163005;23;20445;-83
2022/08/22 03:18:20;;;;;;;6.43;5.63;;;14.40;99.90;;;;;;6162111;23;20087;-83
2022/08/22 03:37:32;;;;;;;6.22;5.43;;;14.40;99.90;;;;;;6039556;23;20412;-76
2022/08/22 03:58:22;;;;;;;;;;;;;;;;;;;;;
2022/08/22 04:05:53;;;;;;;6.80;5.88;;;14.40;99.90;;;;;;5987549;22;20027;-83
2022/08/22 04:08:59;;;;;;;6.80;5.75;;;14.40;99.90;;;;;;6162239;23;20063;-83
2022/08/22 04:11:45;;;;;;;6.18;5.57;;;14.40;99.90;;;;;;6171747;23;20095;-83
2022/08/22 04:14:30;;;;;;;7.50;5.80;;;14.50;99.90;;;;;;6187402;23;20353;-83
2022/08/22 04:17:15;;;;;;;7.20;5.80;;;14.50;99.90;;;;;;6139208;23;20021;-83
2022/08/22 04:20:09;;;;;;;6.53;5.75;;;14.50;99.90;;;;;;6157744;23;20012;-82
2022/08/22 04:23:12;;;;;;;7.28;5.93;;;14.50;99.90;;;;;;6157304;23;20342;-83
2022/08/22 04:25:40;;;;;;;8.35;5.53;;;14.60;99.90;;;;;;6127426;23;20271;-83
2022/08/22 04:28:18;;;;;;;6.65;5.10;;;14.60;99.90;;;;;;6155578;23;20016;-83
2022/08/22 04:30:56;;;;;;;6.80;5.22;;;14.60;99.90;;;;;;6133245;23;20016;-83
2022/08/22 04:33:29;;;;;;;6.47;5.38;;;14.70;99.90;;;;;;6158668;23;20088;-83
2022/08/22 04:36:07;;;;;;;6.00;4.85;;;14.80;99.90;;;;;;6132510;23;20078;-82
2022/08/22 04:38:41;;;;;;;5.60;4.70;;;14.80;99.90;;;;;;6156853;23;20020;-82
2022/08/22 04:41:23;;;;;;;7.07;4.82;;;14.90;99.90;;;;;;6133138;23;20557;-82
2022/08/22 04:44:20;;;;;;;6.25;4.75;;;14.90;99.90;;;;;;6157274;23;20616;-82
2022/08/22 04:47:02;;;;;;;5.28;4.68;;;14.90;99.90;;;;;;6120048;23;20032;-83
2022/08/22 04:49:33;;;;;;;6.63;4.47;;;15.00;99.90;;;;;;6182347;23;20023;-83
2022/08/22 04:52:18;;;;;;;5.82;4.45;;;15.00;99.90;;;;;;6133051;23;20043;-82
2022/08/22 04:55:02;;;;;;;4.93;4.15;;;15.10;99.90;;;;;;6132629;23;20331;-83
2022/08/22 04:57:53;;;;;;;6.18;4.05;;;15.10;99.90;;;;;;6155000;23;20013;-82
2022/08/22 05:00:18;;;;;;;5.85;4.47;;;15.20;99.90;;;;;;6157614;23;20017;-83
2022/08/22 05:02:55;;;;;;;6.32;3.95;;;15.20;99.90;;;;;;6156782;23;20091;-83
2022/08/22 05:05:25;;;;;;;5.03;4.32;;;15.20;99.90;;;;;;6158446;23;20013;-82
2022/08/22 05:07:58;;;;;;;4.93;4.43;;;15.30;99.90;;;;;;6158927;23;20040;-82
2022/08/22 05:10:37;;;;;;;6.35;4.93;;;15.20;99.90;;;;;;6134938;23;20013;-82
2022/08/22 05:13:11;;;;;;;5.50;4.68;;;15.30;99.90;;;;;;6158312;23;20016;-82
2022/08/22 05:15:42;;;;;;;6.30;5.07;;;15.30;99.90;;;;;;6134566;23;20009;-83
2022/08/22 05:18:25;;;;;;;7.70;4.93;;;15.30;99.90;;;;;;6158964;23;20013;-82
2022/08/22 05:20:53;;;;;;;5.55;4.90;;;15.30;99.90;;;;;;6134515;23;20133;-82
2022/08/22 05:23:36;;;;;;;6.15;4.70;;;15.30;99.90;;;;;;6158913;23;20013;-82
2022/08/22 05:26:05;;;;;;;6.03;5.07;;;15.30;99.90;;;;;;6159006;23;20009;-82
2022/08/22 05:28:39;;;;;;;5.60;4.78;;;15.30;99.90;;;;;;6133538;23;20276;-82
2022/08/22 05:31:10;;;;;;;7.20;4.88;;;15.30;99.90;;;;;;6159362;23;20088;-82
2022/08/22 05:33:47;;;;;;;6.43;5.38;;;15.40;99.90;;;;;;6158005;23;20009;-83
2022/08/22 05:36:32;;;;;;;6.53;5.88;;;15.40;99.90;;;;;;6134623;23;20013;-83
2022/08/22 05:39:24;;;;;;;6.32;5.65;;;15.40;99.90;;;;;;6158411;23;20009;-84
2022/08/22 05:41:52;;;;;;;6.13;5.45;;;15.50;99.90;;;;;;6133210;23;20017;-83
2022/08/22 05:44:44;;;;;;;5.78;4.95;;;15.50;99.90;;;;;;6159133;23;20009;-83
2022/08/22 05:47:34;;;;;;;6.65;5.95;;;15.50;99.90;;;;;;6156819;23;20009;-83
2022/08/22 05:50:05;;;;;;;6.22;5.63;;;15.50;99.90;;;;;;6159048;23;20009;-83
2022/08/22 05:52:49;;;;;;;8.20;5.70;;;15.50;99.90;;;;;;6133937;23;20020;-83
2022/08/22 05:55:27;;;;;;;6.53;5.70;;;15.60;99.90;;;;;;6158578;23;20240;-83
2022/08/22 05:58:21;;;;;;;6.40;5.78;;;15.60;99.90;;;;;;6133902;23;20055;-83
2022/08/22 06:00:57;;;;;;;5.90;5.40;;;15.60;99.90;;;;;;6158998;23;20044;-83
2022/08/22 06:03:48;;;;;;;6.63;5.65;;;15.60;99.90;;;;;;6132492;23;20013;-83
2022/08/22 06:06:17;;;;;;;7.80;5.63;;;15.70;99.90;;;;;;6157010;23;20024;-83
2022/08/22 06:09:02;;;;;;;7.25;6.45;;;15.70;99.90;;;;;;6157154;23;20090;-83
2022/08/22 06:12:03;;;;;;;7.80;6.05;;;15.60;99.90;;;;;;6158593;23;20365;-83
2022/08/22 06:14:39;;;;;;;6.38;5.70;;;15.80;99.90;;;;;;6120696;23;20099;-83
2022/08/22 06:17:16;;;;;;;7.05;5.80;;;15.90;99.90;;;;;;6133818;23;20097;-82
2022/08/22 06:19:47;;;;;;;7.85;5.22;;;15.90;99.90;;;;;;6158698;23;20006;-83
2022/08/22 06:22:23;;;;;;;7.43;5.68;;;15.90;99.90;;;;;;6158907;23;20024;-83
2022/08/22 06:24:51;;;;;;;7.47;5.25;;;16.00;99.90;;;;;;6157781;23;20084;-83
2022/08/22 06:27:22;;;;;;;6.88;5.30;;;16.00;99.90;;;;;;6158383;23;20035;-82
2022/08/22 06:29:55;;;;;;;8.18;5.82;;;16.10;99.90;;;;;;6134319;23;20064;-82
2022/08/22 06:32:23;;;;;;;5.72;5.13;;;16.10;99.90;;;;;;6158826;23;20377;-82
2022/08/22 06:34:51;;;;;;;5.78;4.85;;;16.20;99.90;;;;;;6133667;23;20027;-82
2022/08/22 06:37:26;;;;;;;6.90;5.18;;;16.20;99.90;;;;;;6157978;23;20052;-82
2022/08/22 06:39:54;;;;;;;6.70;4.93;;;16.30;99.90;;;;;;6158326;23;20509;-82
2022/08/22 06:42:27;;;;;;;6.88;5.00;;;16.40;99.90;;;;;;6134095;23;20465;-82
2022/08/22 06:44:59;;;;;;;;;;;16.40;99.90;;;;;;6158041;23;20392;-83
2022/08/22 06:47:51;;;;;;;8.18;5.32;;;16.50;99.90;;;;;;6133363;23;19987;-83
2022/08/22 06:50:28;;;;;;;8.60;6.20;;;16.60;99.90;;;;;;6125407;23;20027;-81
2022/08/22 06:53:09;;;;;;;7.05;5.13;;;16.60;99.90;;;;;;6157550;23;20009;-82
2022/08/22 06:55:39;;;;;;;6.13;5.00;;;16.60;99.90;;;;;;6132931;23;20017;-82
2022/08/22 06:58:26;;;;;;;7.05;5.20;;;16.70;99.90;;;;;;6133945;23;20009;-82
2022/08/22 07:00:57;;;;;;;8.10;5.07;;;16.80;99.90;;;;;;6132455;23;20025;-81
2022/08/22 07:03:36;;;;;;;5.70;5.03;;;16.90;99.90;;;;;;6158285;23;20340;-82
2022/08/22 07:06:03;;;;;;;6.50;4.63;;;17.00;99.90;;;;;;6134023;23;20338;-82
2022/08/22 07:08:32;;;;;;;6.55;4.53;;;17.10;99.90;;;;;;6157731;23;20092;-86
2022/08/22 07:11:13;;;;;;;5.78;4.40;;;17.10;99.90;;;;;;6131619;23;20394;-83
2022/08/22 07:13:45;;;;;;;6.55;4.30;;;17.30;99.90;;;;;;6159031;23;20412;-80
2022/08/22 07:16:11;;;;;;;5.70;4.18;;;17.30;99.90;;;;;;6158879;23;20458;-80
2022/08/22 07:18:47;;;;;;;4.60;3.38;;;17.40;99.90;;;;;;6133930;23;20023;-81
2022/08/22 07:21:24;;;;;;;7.53;3.75;;;17.50;99.90;;;;;;6131433;23;20009;-80
2022/08/22 07:23:50;;;;;;;4.80;2.95;;;17.50;99.90;;;;;;6158580;23;20017;-81
2022/08/22 07:26:47;;;;;;;6.88;3.90;;;17.60;99.90;;;;;;6133538;23;20067;-82
2022/08/22 07:29:41;;;;;;;4.00;3.15;;;17.70;99.90;;;;;;6158027;23;20147;-81
2022/08/22 07:32:50;;;;;;;5.80;3.15;;;17.80;99.90;;;;;;6155206;23;20010;-80
2022/08/22 07:35:23;;;;;;;3.67;2.90;;;17.80;99.90;;;;;;6132873;23;20021;-80
2022/08/22 07:37:52;;;;;;;;;;;17.90;99.90;;;;;;6133231;23;20012;-80
2022/08/22 07:40:51;;;;;;;3.83;2.60;;;18.00;99.90;;;;;;6133162;23;19916;-81
2022/08/22 07:43:41;;;;;;;4.53;2.58;;;18.10;99.90;;;;;;6132672;23;20013;-82
2022/08/22 07:46:13;;;;;;;3.53;2.33;;;18.10;99.90;;;;;;6157656;23;20017;-81
2022/08/22 07:48:48;;;;;;;4.60;2.67;;;18.10;99.90;;;;;;6132773;23;20122;-84
2022/08/22 07:51:21;;;;;;;3.28;2.30;;;18.10;99.90;;;;;;6132566;23;20013;-80
2022/08/22 07:53:46;;;;;;;;;;;18.20;99.90;;;;;;6133690;23;20023;-80
2022/08/22 07:56:22;;;;;;;4.70;2.30;;;18.20;99.90;;;;;;6133336;23;19916;-80
2022/08/22 07:58:57;;;;;;;5.82;2.15;;;18.30;99.90;;;;;;6157919;23;20005;-80
2022/08/22 08:01:24;;;;;;;3.65;2.10;;;18.40;99.90;;;;;;6157575;23;20009;-82
2022/08/22 08:03:54;;;;;;;3.63;2.08;;;18.50;99.90;;;;;;6157025;23;20009;-84
2022/08/22 08:06:23;;;;;;;3.55;1.77;;;18.60;99.90;;;;;;6160614;23;20028;-79
2022/08/22 08:08:50;;;;;;;2.80;2.20;;;18.70;99.90;;;;;;6161725;23;20340;-79
2022/08/22 08:11:18;;;;;;;4.07;2.20;;;18.90;99.90;;;;;;6160284;23;20013;-79
2022/08/22 08:13:48;;;;;;;3.40;2.40;;;19.00;99.90;;;;;;6138298;23;20041;-80
2022/08/22 08:16:26;;;;;;;2.78;1.70;;;19.10;99.90;;;;;;6158090;23;20048;-81
2022/08/22 08:18:55;;;;;;;4.57;2.17;;;19.20;99.90;;;;;;6131912;23;20013;-82
2022/08/22 08:21:32;;;;;;;3.85;2.10;;;19.30;99.90;;;;;;6157967;23;20067;-82
2022/08/22 08:24:00;;;;;;;4.07;2.08;;;19.30;99.90;;;;;;6133535;23;20009;-82
2022/08/22 08:29:35;;;;;;;2.35;1.63;;;19.50;99.90;;;;;;6182219;23;20488;-82
2022/08/22 08:32:04;;;;;;;3.55;1.83;;;19.90;99.90;;;;;;6132959;23;20013;-83
2022/08/22 08:34:31;;;;;;;2.92;1.65;;;20.60;99.90;;;;;;6157556;23;20016;-82
2022/08/22 08:37:03;;;;;;;2.63;1.45;;;21.40;99.90;;;;;;6132089;23;20028;-83
2022/08/22 08:39:38;;;;;;;2.73;1.40;;;22.10;99.90;;;;;;6157212;23;20015;-87
2022/08/22 08:45:53;;;;;;;1.52;0.93;;;23.50;99.90;;;;;;6182199;23;20043;-83
2022/08/22 08:48:51;;;;;;;2.55;1.08;;;24.10;99.90;;;;;;6132598;23;20099;-84
2022/08/22 08:51:43;;;;;;;3.53;1.30;;;24.30;99.90;;;;;;6132423;23;20450;-85
2022/08/22 08:54:15;;;;;;;2.90;1.10;;;24.00;99.80;;;;;;6157365;23;20009;-85
2022/08/22 08:56:57;;;;;;;1.92;1.13;;;23.40;99.90;;;;;;6132605;23;20021;-83
2022/08/22 08:59:50;;;;;;;2.97;1.20;;;22.90;97.50;;;;;;6132672;23;20005;-86
2022/08/22 09:02:47;;;;;;;2.88;1.20;;;22.50;97.20;;;;;;6132504;23;20401;-87
2022/08/22 09:05:32;;;;;;;3.88;1.40;;;22.30;96.80;;;;;;6156605;23;20473;-85
2022/08/22 09:08:13;;;;;;;2.47;1.00;;;22.20;99.00;;;;;;6156467;23;20048;-85
2022/08/22 09:10:51;;;;;;;1.52;0.93;;;22.20;99.80;;;;;;6131901;23;20060;-85
2022/08/22 09:13:50;;;;;;;1.98;1.20;;;22.10;99.10;;;;;;6157169;23;20017;-85
2022/08/22 09:16:38;;;;;;;1.80;1.05;;;22.20;95.60;;;;;;6156833;23;20547;-85
2022/08/22 09:19:36;;;;;;;2.53;1.10;;;22.30;94.00;;;;;;6156090;23;20016;-86
2022/08/22 09:22:39;;;;;;;4.35;1.33;;;22.50;95.00;;;;;;6156844;23;20449;-86
2022/08/22 09:25:23;;;;;;;2.55;1.20;;;22.50;93.70;;;;;;6127789;23;20127;-85
2022/08/22 09:28:01;;;;;;;2.15;1.20;;;22.40;91.70;;;;;;6131692;23;20104;-86
2022/08/22 09:30:47;;;;;;;2.13;1.00;;;22.30;94.80;;;;;;6132750;23;20473;-86
2022/08/22 09:33:18;;;;;;;2.92;1.20;;;22.30;93.10;;;;;;6117222;23;20048;-86
2022/08/22 09:36:05;;;;;;;2.95;1.08;;;22.30;93.30;;;;;;6156829;23;20021;-86
2022/08/22 09:38:54;;;;;;;2.22;1.15;;;22.20;92.40;;;;;;6132013;23;20468;-86
2022/08/22 09:41:51;;;;;;;2.35;1.02;;;22.10;91.20;;;;;;6156996;23;20017;-86
2022/08/22 09:44:39;;;;;;;2.25;1.00;;;22.10;90.70;;;;;;6132554;23;20383;-85
2022/08/22 09:47:14;;;;;;;2.35;1.10;;;22.10;89.70;;;;;;6157101;23;20096;-85
2022/08/22 09:50:12;;;;;;;3.17;1.13;;;22.00;90.80;;;;;;6132299;23;20395;-84
2022/08/22 09:53:08;;;;;;;1.90;1.00;;;22.10;91.80;;;;;;6133365;23;20016;-85
2022/08/22 09:55:45;;;;;;;3.83;1.10;;;22.20;90.60;;;;;;6132505;23;20017;-84
2022/08/22 09:58:51;;;;;;;1.88;1.17;;;22.40;90.30;;;;;;6157131;23;20067;-85
2022/08/22 10:01:17;;;;;;;2.38;0.80;;;22.70;87.60;;;;;;6157936;23;20009;-84
2022/08/22 10:04:04;;;;;;;3.17;1.00;;;22.80;87.20;;;;;;6134189;23;20013;-84
2022/08/22 10:06:40;;;;;;;2.53;1.10;;;23.10;89.10;;;;;;6133890;23;20012;-83
2022/08/22 10:09:44;;;;;;;2.22;0.95;;;23.20;84.90;;;;;;6133810;23;20118;-84
2022/08/22 10:12:18;;;;;;;2.25;1.05;;;23.20;82.30;;;;;;6133746;23;20021;-86
2022/08/22 10:15:28;;;;;;;2.53;1.02;;;23.20;83.70;;;;;;6133737;23;20017;-80
2022/08/22 10:18:14;;;;;;;3.50;1.10;;;23.30;80.60;;;;;;6098033;23;20030;-85
2022/08/22 10:21:07;;;;;;;1.02;0.75;;;23.40;84.40;;;;;;6113856;23;20032;-84
2022/08/22 10:23:40;;;;;;;2.23;0.77;;;23.90;82.00;;;;;;6157932;23;20048;-83
2022/08/22 10:26:28;;;;;;;2.92;0.80;;;24.30;80.30;;;;;;6134086;23;20013;-84
2022/08/22 10:29:30;;;;;;;2.92;0.95;;;24.70;76.80;;;;;;6132742;23;20013;-80
2022/08/22 10:32:15;;;;;;;1.85;0.80;;;25.10;77.40;;;;;;6157656;23;20036;-78
2022/08/22 10:34:46;;;;;;;1.73;0.60;;;25.40;76.80;;;;;;6161495;23;20020;-80
2022/08/22 10:37:29;;;;;;;2.05;0.90;;;25.80;78.70;;;;;;6134689;23;20005;-78
2022/08/22 10:39:59;;;;;;;;;;;26.00;73.80;;;;;;6158400;23;20005;-78
2022/08/22 10:42:32;;;;;;;2.53;0.85;;;25.90;70.10;;;;;;6131911;23;19978;-78
2022/08/22 10:45:07;;;;;;;;;;;25.70;72.50;;;;;;6158611;23;20019;-78
2022/08/22 10:47:56;;;;;;;2.10;0.60;;;25.50;68.00;;;;;;6132772;23;19982;-79
2022/08/22 10:50:35;;;;;;;1.92;0.95;;;25.50;71.70;;;;;;6158607;23;20401;-78
2022/08/22 10:53:29;;;;;;;2.35;0.98;;;25.60;69.10;;;;;;6157980;23;20016;-78
2022/08/22 10:55:57;;;;;;;;;;;25.70;69.10;;;;;;6159026;23;20092;-79
2022/08/22 10:58:30;;;;;;;2.03;0.70;;;26.00;69.80;;;;;;6133117;23;19983;-79
2022/08/22 11:01:00;;;;;;;2.15;0.70;;;26.30;71.70;;;;;;6159102;23;20011;-78
2022/08/22 11:03:34;;;;;;;1.63;0.75;;;26.70;71.50;;;;;;6132245;23;20469;-79
2022/08/22 11:06:08;;;;;;;0.95;0.60;;;27.00;71.20;;;;;;6135006;23;20077;-78
2022/08/22 11:08:37;;;;;;;2.25;0.80;;;27.40;68.70;;;;;;6161198;23;20019;-78
2022/08/22 11:11:05;;;;;;;1.88;0.80;;;27.30;66.20;;;;;;6133236;23;20051;-80
2022/08/22 11:13:37;;;;;;;1.23;1.13;;;26.80;66.20;;;;;;6181844;23;20398;-80
2022/08/22 11:16:16;;;;;;;1.98;0.90;;;26.30;67.70;;;;;;6157552;23;20285;-78
2022/08/22 11:19:07;;;;;;;2.72;1.08;;;26.10;67.20;;;;;;6158288;23;20020;-78
2022/08/22 11:21:57;;;;;;;2.50;1.02;;;26.00;67.20;;;;;;6133142;23;20072;-80
2022/08/22 11:24:29;;;;;;;2.70;1.00;;;25.70;67.20;;;;;;6133640;23;20064;-82
2022/08/22 11:27:13;;;;;;;3.03;1.08;;;25.60;68.60;;;;;;6156297;23;20031;-80
2022/08/22 11:29:58;;;;;;;1.52;0.90;;;25.60;68.20;;;;;;6132154;23;20012;-82
2022/08/22 11:33:01;;;;;;;2.15;1.20;;;25.60;69.30;;;;;;6133220;23;20314;-81
2022/08/22 11:35:48;;;;;;;2.07;0.90;;;25.70;66.50;;;;;;6132039;23;20051;-82
2022/08/22 11:38:21;;;;;;;2.30;1.00;;;25.80;69.40;;;;;;6131474;23;20244;-82
2022/08/22 11:41:12;;;;;;;1.33;0.77;;;26.10;70.00;;;;;;6157631;23;20013;-82
2022/08/22 11:44:07;;;;;;;2.88;0.90;;;26.30;68.50;;;;;;6157553;23;20099;-81
2022/08/22 11:46:41;;;;;;;2.95;1.25;;;26.30;67.90;;;;;;6157222;23;20044;-81
2022/08/22 11:49:23;;;;;;;1.73;1.00;;;26.40;66.20;;;;;;6131521;23;20360;-80
2022/08/22 11:52:16;;;;;;;2.65;1.08;;;26.40;67.90;;;;;;6157628;23;20100;-79
2022/08/22 11:54:57;;;;;;;2.35;0.90;;;26.50;66.10;;;;;;6157375;23;20021;-80
2022/08/22 11:57:35;;;;;;;1.75;0.90;;;26.40;63.90;;;;;;6132200;23;20013;-81
2022/08/22 12:00:20;;;;;;;1.13;0.95;;;26.20;65.60;;;;;;6132878;23;20449;-80
2022/08/22 12:03:04;;;;;;;4.10;1.30;;;26.20;69.10;;;;;;6133142;23;20426;-80
2022/08/22 12:05:40;;;;;;;4.65;0.90;;;26.50;68.10;;;;;;6132035;23;20454;-81
2022/08/22 12:08:12;;;;;;;2.55;0.90;;;26.90;66.10;;;;;;6130628;23;20009;-81
2022/08/22 12:10:54;;;;;;;3.78;1.00;;;27.10;65.60;;;;;;6129113;23;20045;-79
2022/08/22 12:13:38;;;;;;;2.00;1.02;;;27.20;67.20;;;;;;6130568;23;20013;-81
2022/08/22 12:16:18;;;;;;;4.03;1.02;;;27.60;65.10;;;;;;6156352;23;20071;-79
2022/08/22 12:18:54;;;;;;;3.88;1.65;;;27.70;65.30;;;;;;6132186;23;20036;-79
2022/08/22 12:21:51;;;;;;;3.03;1.13;;;27.90;63.00;;;;;;6132809;23;20009;-79
2022/08/22 12:24:52;;;;;;;1.75;0.85;;;27.80;64.80;;;;;;6157045;23;20458;-79
2022/08/22 12:27:41;;;;;;;3.10;1.10;;;28.20;66.30;;;;;;6096168;23;20091;-80
2022/08/22 12:30:36;;;;;;;3.22;1.10;;;28.60;65.40;;;;;;6129307;23;20017;-80
2022/08/22 12:33:17;;;;;;;1.60;1.10;;;29.00;65.00;;;;;;6156069;23;20013;-80
2022/08/22 12:36:06;;;;;;;2.47;1.00;;;29.20;65.20;;;;;;6156331;23;20458;-81
2022/08/22 12:39:14;;;;;;;2.80;1.40;;;29.40;64.30;;;;;;6156463;23;20009;-80
2022/08/22 12:41:55;;;;;;;1.67;0.93;;;29.50;61.20;;;;;;6134442;23;20009;-77
2022/08/22 12:44:40;;;;;;;1.77;1.10;;;29.30;61.80;;;;;;6156664;23;20012;-79
2022/08/22 12:47:31;;;;;;;2.90;1.02;;;29.00;62.50;;;;;;6180680;23;20096;-79
2022/08/22 12:50:27;;;;;;;2.28;1.17;;;29.00;63.90;;;;;;6154063;23;20425;-79
2022/08/22 12:52:58;;;;;;;2.63;0.90;;;29.20;60.10;;;;;;6156328;23;20020;-83
2022/08/22 12:55:37;;;;;;;1.80;0.73;;;29.40;62.90;;;;;;6156776;23;20013;-80
2022/08/22 12:58:32;;;;;;;2.17;1.17;;;29.40;59.90;;;;;;6156577;23;20013;-79
2022/08/22 13:01:03;;;;;;;1.55;0.90;;;29.30;62.30;;;;;;6131419;23;20013;-80
2022/08/22 13:03:32;;;;;;;2.13;1.15;;;29.30;63.20;;;;;;6156208;23;20013;-82
2022/08/22 13:06:04;;;;;;;1.48;0.90;;;29.20;63.10;;;;;;6129528;23;20092;-81
2022/08/22 13:08:44;;;;;;;2.90;1.10;;;29.00;62.50;;;;;;6154262;23;20036;-79
2022/08/22 13:11:12;;;;;;;2.45;0.93;;;28.70;62.50;;;;;;6154883;23;20369;-80
2022/08/22 13:13:43;;;;;;;2.10;1.15;;;28.30;62.90;;;;;;6156631;23;20014;-80
2022/08/22 13:16:15;;;;;;;2.22;1.13;;;28.20;62.70;;;;;;6131912;23;20024;-80
2022/08/22 13:18:55;;;;;;;3.45;1.30;;;27.90;61.60;;;;;;6156089;23;20021;-80
2022/08/22 13:21:27;;;;;;;1.75;1.00;;;27.50;62.90;;;;;;6157104;23;20013;-79
2022/08/22 13:23:56;;;;;;;2.20;1.20;;;27.30;63.10;;;;;;6156928;23;20009;-80
2022/08/22 13:26:30;;;;;;;3.63;1.27;;;27.00;63.50;;;;;;6157561;23;20091;-79
2022/08/22 13:29:05;;;;;;;3.55;1.10;;;26.80;64.70;;;;;;6158491;23;20457;-79
2022/08/22 13:31:37;;;;;;;1.70;1.10;;;26.80;65.40;;;;;;6157787;23;20064;-80
2022/08/22 13:34:28;;;;;;;1.77;1.00;;;26.80;65.40;;;;;;6157765;23;20010;-78
2022/08/22 13:36:58;;;;;;;2.95;1.00;;;26.90;65.60;;;;;;6133879;23;20051;-78
2022/08/22 13:39:25;;;;;;;1.95;1.10;;;26.90;64.90;;;;;;6158192;23;20009;-78
2022/08/22 13:41:58;;;;;;;2.17;1.13;;;26.90;65.60;;;;;;6158836;23;20508;-79
2022/08/22 13:44:37;;;;;;;2.67;1.13;;;26.80;63.80;;;;;;6158396;23;20013;-78
2022/08/22 13:47:15;;;;;;;2.78;1.30;;;26.70;63.80;;;;;;6157837;23;20017;-78
2022/08/22 13:49:45;;;;;;;2.25;1.13;;;26.60;63.60;;;;;;6158232;23;20016;-78
2022/08/22 13:52:31;;;;;;;3.22;1.15;;;26.30;63.70;;;;;;6182647;23;20536;-80
2022/08/22 13:55:09;;;;;;;2.45;1.23;;;26.10;65.10;;;;;;6182596;23;20100;-80
2022/08/22 13:57:49;;;;;;;3.65;2.00;;;26.20;65.80;;;;;;6133702;23;20092;-80
2022/08/22 14:00:17;;;;;;;2.45;1.30;;;26.30;65.40;;;;;;6133521;23;20040;-80
2022/08/22 14:03:01;;;;;;;2.30;1.20;;;26.40;65.60;;;;;;6157239;23;20024;-81
2022/08/22 14:05:35;;;;;;;2.42;1.23;;;26.50;64.10;;;;;;6158443;23;20020;-80
2022/08/22 14:08:19;;;;;;;1.90;1.27;;;26.60;64.90;;;;;;6132757;23;20009;-83
2022/08/22 14:10:52;;;;;;;2.67;1.10;;;26.60;64.90;;;;;;6157755;23;20032;-79
2022/08/22 14:13:41;;;;;;;2.17;1.10;;;26.60;64.90;;;;;;6153907;23;20059;-79
2022/08/22 14:16:22;;;;;;;2.75;1.50;;;26.70;63.60;;;;;;6133331;23;20024;-79
2022/08/22 14:18:52;;;;;;;2.25;1.50;;;26.80;65.30;;;;;;6158553;23;20143;-80
2022/08/22 14:21:36;;;;;;;3.20;1.15;;;27.00;65.60;;;;;;6134250;23;20012;-80
2022/08/22 14:24:16;;;;;;;2.53;1.23;;;27.00;61.70;;;;;;6133760;23;20013;-79
2022/08/22 14:26:54;;;;;;;1.50;0.98;;;26.80;65.40;;;;;;6131732;23;20346;-80
2022/08/22 14:29:21;;;;;;;1.90;1.10;;;26.70;65.40;;;;;;6154107;23;20017;-79
2022/08/22 14:32:14;;;;;;;2.40;1.27;;;26.70;65.80;;;;;;6132727;23;20025;-79
2022/08/22 14:34:42;;;;;;;3.63;1.63;;;26.60;65.30;;;;;;6146942;23;20017;-79
2022/08/22 14:37:26;;;;;;;3.20;1.20;;;26.40;64.80;;;;;;6156766;23;20095;-79
2022/08/22 14:40:01;;;;;;;2.22;0.98;;;26.30;65.30;;;;;;6134738;23;20017;-81
2022/08/22 14:42:37;;;;;;;2.83;1.15;;;26.40;65.70;;;;;;6159084;23;20473;-81
2022/08/22 14:45:09;;;;;;;3.60;1.35;;;26.50;66.70;;;;;;6135141;23;20032;-81
2022/08/22 14:48:06;;;;;;;2.05;1.00;;;26.60;65.90;;;;;;6158283;23;20017;-81
2022/08/22 14:50:34;;;;;;;1.65;1.10;;;26.70;65.60;;;;;;6133321;23;20020;-82